sensor_id;sensor_type;location;lat;lon;timestamp;temperature;humidity
298;DHT22;133;49.626;9.680;2022-09-28T00:00:26;9.20;97.20
298;DHT22;133;49.626;9.680;2022-09-28T00:02:56;9.20;96.90
298;DHT22;133;49.626;9.680;2022-09-28T00:05:25;9.10;96.50
298;DHT22;133;49.626;9.680;2022-09-28T00:07:53;9.20;96.30
298;DHT22;133;49.626;9.680;2022-09-28T00:10:20;9.20;96.40
298;DHT22;133;49.626;9.680;2022-09-28T00:12:49;9.20;96.20
298;DHT22;133;49.626;9.680;2022-09-28T00:15:15;9.20;96.00
298;DHT22;133;49.626;9.680;2022-09-28T00:17:41;9.20;96.10
298;DHT22;133;49.626;9.680;2022-09-28T00:20:10;9.20;96.10
298;DHT22;133;49.626;9.680;2022-09-28T00:22:36;9.20;96.30
298;DHT22;133;49.626;9.680;2022-09-28T00:25:03;9.20;96.30
298;DHT22;133;49.626;9.680;2022-09-28T00:27:30;9.10;96.30
298;DHT22;133;49.626;9.680;2022-09-28T00:29:55;9.10;96.50
298;DHT22;133;49.626;9.680;2022-09-28T00:32:21;9.10;96.70
298;DHT22;133;49.626;9.680;2022-09-28T00:34:49;9.10;96.70
298;DHT22;133;49.626;9.680;2022-09-28T00:37:16;9.10;96.70
298;DHT22;133;49.626;9.680;2022-09-28T00:39:44;9.20;96.70
298;DHT22;133;49.626;9.680;2022-09-28T00:42:13;9.10;96.70
298;DHT22;133;49.626;9.680;2022-09-28T00:44:58;9.10;97.00
298;DHT22;133;49.626;9.680;2022-09-28T00:52:57;9.00;97.50
298;DHT22;133;49.626;9.680;2022-09-28T00:55:42;9.00;97.70
298;DHT22;133;49.626;9.680;2022-09-28T00:58:13;8.90;97.60
298;DHT22;133;49.626;9.680;2022-09-28T01:00:40;8.90;98.10
298;DHT22;133;49.626;9.680;2022-09-28T01:03:07;8.90;98.50
298;DHT22;133;49.626;9.680;2022-09-28T01:05:33;8.90;98.70
298;DHT22;133;49.626;9.680;2022-09-28T01:08:00;8.90;98.70
298;DHT22;133;49.626;9.680;2022-09-28T01:10:27;8.90;98.70
298;DHT22;133;49.626;9.680;2022-09-28T01:12:54;8.90;98.70
298;DHT22;133;49.626;9.680;2022-09-28T01:15:20;8.80;98.70
298;DHT22;133;49.626;9.680;2022-09-28T01:23:36;8.70;98.70
298;DHT22;133;49.626;9.680;2022-09-28T01:29:32;8.70;98.70
298;DHT22;133;49.626;9.680;2022-09-28T01:32:10;8.70;98.70
298;DHT22;133;49.626;9.680;2022-09-28T01:35:01;8.70;98.70
298;DHT22;133;49.626;9.680;2022-09-28T01:37:51;8.70;98.70
298;DHT22;133;49.626;9.680;2022-09-28T01:40:21;8.70;98.70
298;DHT22;133;49.626;9.680;2022-09-28T01:42:50;8.70;98.70
298;DHT22;133;49.626;9.680;2022-09-28T01:45:31;8.70;98.70
298;DHT22;133;49.626;9.680;2022-09-28T01:48:01;8.70;98.70
298;DHT22;133;49.626;9.680;2022-09-28T01:50:33;8.80;98.70
298;DHT22;133;49.626;9.680;2022-09-28T01:53:10;8.70;98.70
298;DHT22;133;49.626;9.680;2022-09-28T01:55:41;8.70;98.70
298;DHT22;133;49.626;9.680;2022-09-28T01:58:36;8.70;98.70
298;DHT22;133;49.626;9.680;2022-09-28T02:01:08;8.70;98.70
298;DHT22;133;49.626;9.680;2022-09-28T02:03:39;8.70;98.70
298;DHT22;133;49.626;9.680;2022-09-28T02:06:18;8.70;98.70
298;DHT22;133;49.626;9.680;2022-09-28T02:08:53;8.70;98.70
298;DHT22;133;49.626;9.680;2022-09-28T02:11:21;8.70;98.70
298;DHT22;133;49.626;9.680;2022-09-28T02:16:25;8.70;98.70
298;DHT22;133;49.626;9.680;2022-09-28T02:18:54;8.70;98.70
298;DHT22;133;49.626;9.680;2022-09-28T02:21:25;8.70;98.70
298;DHT22;133;49.626;9.680;2022-09-28T02:23:59;8.70;98.70
298;DHT22;133;49.626;9.680;2022-09-28T02:26:30;8.80;98.70
298;DHT22;133;49.626;9.680;2022-09-28T02:28:58;8.80;98.70
298;DHT22;133;49.626;9.680;2022-09-28T02:31:25;8.90;98.70
298;DHT22;133;49.626;9.680;2022-09-28T02:33:52;8.90;98.70
298;DHT22;133;49.626;9.680;2022-09-28T02:36:19;8.90;98.70
298;DHT22;133;49.626;9.680;2022-09-28T02:38:45;8.90;98.70
298;DHT22;133;49.626;9.680;2022-09-28T02:41:39;8.90;98.70
298;DHT22;133;49.626;9.680;2022-09-28T02:46:56;8.90;98.70
298;DHT22;133;49.626;9.680;2022-09-28T02:55:18;9.10;98.70
298;DHT22;133;49.626;9.680;2022-09-28T03:00:20;9.10;98.70
298;DHT22;133;49.626;9.680;2022-09-28T03:08:10;9.20;98.70
298;DHT22;133;49.626;9.680;2022-09-28T03:11:06;9.20;98.70
298;DHT22;133;49.626;9.680;2022-09-28T03:13:34;9.30;98.70
298;DHT22;133;49.626;9.680;2022-09-28T03:16:12;9.30;98.70
298;DHT22;133;49.626;9.680;2022-09-28T03:18:38;9.40;98.70
298;DHT22;133;49.626;9.680;2022-09-28T03:21:04;9.40;98.70
298;DHT22;133;49.626;9.680;2022-09-28T03:23:30;9.40;98.70
298;DHT22;133;49.626;9.680;2022-09-28T03:25:56;9.40;98.70
298;DHT22;133;49.626;9.680;2022-09-28T03:28:22;9.40;98.70
298;DHT22;133;49.626;9.680;2022-09-28T03:30:48;9.40;98.70
298;DHT22;133;49.626;9.680;2022-09-28T03:33:14;9.50;98.70
298;DHT22;133;49.626;9.680;2022-09-28T03:35:39;9.40;98.70
298;DHT22;133;49.626;9.680;2022-09-28T03:38:05;9.40;98.70
298;DHT22;133;49.626;9.680;2022-09-28T03:40:30;9.40;98.70
298;DHT22;133;49.626;9.680;2022-09-28T03:42:56;9.40;98.70
298;DHT22;133;49.626;9.680;2022-09-28T03:45:22;9.30;98.70
298;DHT22;133;49.626;9.680;2022-09-28T03:47:47;9.40;98.70
298;DHT22;133;49.626;9.680;2022-09-28T03:50:14;9.30;98.70
298;DHT22;133;49.626;9.680;2022-09-28T03:52:40;9.30;98.70
298;DHT22;133;49.626;9.680;2022-09-28T03:55:06;9.30;98.70
298;DHT22;133;49.626;9.680;2022-09-28T03:57:31;9.30;98.70
298;DHT22;133;49.626;9.680;2022-09-28T03:59:57;9.30;98.70
298;DHT22;133;49.626;9.680;2022-09-28T04:02:23;9.30;98.70
298;DHT22;133;49.626;9.680;2022-09-28T04:04:48;9.30;98.70
298;DHT22;133;49.626;9.680;2022-09-28T04:07:14;9.30;98.70
298;DHT22;133;49.626;9.680;2022-09-28T04:09:39;9.30;98.70
298;DHT22;133;49.626;9.680;2022-09-28T04:12:05;9.30;98.70
298;DHT22;133;49.626;9.680;2022-09-28T04:14:31;9.30;98.70
298;DHT22;133;49.626;9.680;2022-09-28T04:16:57;9.30;98.70
298;DHT22;133;49.626;9.680;2022-09-28T04:19:22;9.40;98.70
298;DHT22;133;49.626;9.680;2022-09-28T04:21:48;9.40;98.70
298;DHT22;133;49.626;9.680;2022-09-28T04:24:17;9.40;98.70
298;DHT22;133;49.626;9.680;2022-09-28T04:26:43;9.50;98.70
298;DHT22;133;49.626;9.680;2022-09-28T04:29:09;9.50;98.70
298;DHT22;133;49.626;9.680;2022-09-28T04:34:08;9.50;98.70
298;DHT22;133;49.626;9.680;2022-09-28T04:36:34;9.60;98.70
298;DHT22;133;49.626;9.680;2022-09-28T04:39:00;9.60;98.70
298;DHT22;133;49.626;9.680;2022-09-28T04:41:25;9.60;98.70
298;DHT22;133;49.626;9.680;2022-09-28T04:43:51;9.60;98.70
298;DHT22;133;49.626;9.680;2022-09-28T04:46:18;9.60;98.70
298;DHT22;133;49.626;9.680;2022-09-28T04:48:44;9.50;98.70
298;DHT22;133;49.626;9.680;2022-09-28T04:51:09;9.50;98.70
298;DHT22;133;49.626;9.680;2022-09-28T04:53:35;9.50;98.70
298;DHT22;133;49.626;9.680;2022-09-28T04:56:03;9.40;98.70
298;DHT22;133;49.626;9.680;2022-09-28T04:58:30;9.40;98.70
298;DHT22;133;49.626;9.680;2022-09-28T05:00:58;9.40;98.70
298;DHT22;133;49.626;9.680;2022-09-28T05:03:24;9.50;98.70
298;DHT22;133;49.626;9.680;2022-09-28T05:05:50;9.50;98.70
298;DHT22;133;49.626;9.680;2022-09-28T05:08:16;9.50;98.70
298;DHT22;133;49.626;9.680;2022-09-28T05:10:42;9.50;98.70
298;DHT22;133;49.626;9.680;2022-09-28T05:13:09;9.50;98.70
298;DHT22;133;49.626;9.680;2022-09-28T05:15:36;9.50;98.70
298;DHT22;133;49.626;9.680;2022-09-28T05:18:02;9.50;98.70
298;DHT22;133;49.626;9.680;2022-09-28T05:20:29;9.50;98.70
298;DHT22;133;49.626;9.680;2022-09-28T05:22:54;9.50;98.70
298;DHT22;133;49.626;9.680;2022-09-28T05:25:20;9.50;98.70
298;DHT22;133;49.626;9.680;2022-09-28T05:27:46;9.50;98.70
298;DHT22;133;49.626;9.680;2022-09-28T05:30:12;9.50;98.70
298;DHT22;133;49.626;9.680;2022-09-28T05:32:41;9.50;98.70
298;DHT22;133;49.626;9.680;2022-09-28T05:35:07;9.50;98.70
298;DHT22;133;49.626;9.680;2022-09-28T05:37:33;9.50;98.70
298;DHT22;133;49.626;9.680;2022-09-28T05:40:01;9.60;98.70
298;DHT22;133;49.626;9.680;2022-09-28T05:42:26;9.60;98.70
298;DHT22;133;49.626;9.680;2022-09-28T05:44:52;9.70;98.70
298;DHT22;133;49.626;9.680;2022-09-28T05:47:17;9.70;98.70
298;DHT22;133;49.626;9.680;2022-09-28T05:49:43;9.80;98.70
298;DHT22;133;49.626;9.680;2022-09-28T05:52:09;9.90;98.70
298;DHT22;133;49.626;9.680;2022-09-28T05:54:34;9.90;98.70
298;DHT22;133;49.626;9.680;2022-09-28T05:57:00;9.90;98.70
298;DHT22;133;49.626;9.680;2022-09-28T05:59:25;9.90;98.70
298;DHT22;133;49.626;9.680;2022-09-28T06:01:51;9.80;98.40
298;DHT22;133;49.626;9.680;2022-09-28T06:04:16;9.80;98.60
298;DHT22;133;49.626;9.680;2022-09-28T06:06:42;9.80;98.30
298;DHT22;133;49.626;9.680;2022-09-28T06:09:08;9.70;98.00
298;DHT22;133;49.626;9.680;2022-09-28T06:11:33;9.60;97.80
298;DHT22;133;49.626;9.680;2022-09-28T06:13:59;9.60;98.30
298;DHT22;133;49.626;9.680;2022-09-28T06:16:24;9.60;98.30
298;DHT22;133;49.626;9.680;2022-09-28T06:18:50;9.60;98.20
298;DHT22;133;49.626;9.680;2022-09-28T06:21:16;9.60;98.70
298;DHT22;133;49.626;9.680;2022-09-28T06:23:41;9.60;98.70
298;DHT22;133;49.626;9.680;2022-09-28T06:26:07;9.70;98.70
298;DHT22;133;49.626;9.680;2022-09-28T06:28:32;9.80;98.60
298;DHT22;133;49.626;9.680;2022-09-28T06:30:59;9.90;98.50
298;DHT22;133;49.626;9.680;2022-09-28T06:33:25;10.00;97.90
298;DHT22;133;49.626;9.680;2022-09-28T06:35:52;10.00;97.60
298;DHT22;133;49.626;9.680;2022-09-28T06:38:18;9.90;97.60
298;DHT22;133;49.626;9.680;2022-09-28T06:40:43;9.80;97.20
298;DHT22;133;49.626;9.680;2022-09-28T06:43:13;9.80;97.40
298;DHT22;133;49.626;9.680;2022-09-28T06:45:40;9.80;98.00
298;DHT22;133;49.626;9.680;2022-09-28T06:48:07;9.70;97.70
298;DHT22;133;49.626;9.680;2022-09-28T06:50:35;9.70;97.60
298;DHT22;133;49.626;9.680;2022-09-28T06:53:05;9.60;98.10
298;DHT22;133;49.626;9.680;2022-09-28T06:55:44;9.60;98.00
298;DHT22;133;49.626;9.680;2022-09-28T06:58:22;9.60;97.20
298;DHT22;133;49.626;9.680;2022-09-28T07:00:50;9.70;97.10
298;DHT22;133;49.626;9.680;2022-09-28T07:03:21;9.70;96.90
298;DHT22;133;49.626;9.680;2022-09-28T07:05:52;9.60;95.70
298;DHT22;133;49.626;9.680;2022-09-28T07:08:19;9.70;95.60
298;DHT22;133;49.626;9.680;2022-09-28T07:10:48;9.60;94.10
298;DHT22;133;49.626;9.680;2022-09-28T07:13:14;9.50;94.40
298;DHT22;133;49.626;9.680;2022-09-28T07:15:41;9.60;95.00
298;DHT22;133;49.626;9.680;2022-09-28T07:18:09;9.50;95.20
298;DHT22;133;49.626;9.680;2022-09-28T07:20:36;9.50;95.00
298;DHT22;133;49.626;9.680;2022-09-28T07:23:04;9.50;95.20
298;DHT22;133;49.626;9.680;2022-09-28T07:25:30;9.50;95.00
298;DHT22;133;49.626;9.680;2022-09-28T07:28:01;9.50;95.20
298;DHT22;133;49.626;9.680;2022-09-28T07:30:28;9.60;95.60
298;DHT22;133;49.626;9.680;2022-09-28T07:32:58;9.50;94.30
298;DHT22;133;49.626;9.680;2022-09-28T07:35:24;9.50;94.30
298;DHT22;133;49.626;9.680;2022-09-28T07:38:06;9.50;94.60
298;DHT22;133;49.626;9.680;2022-09-28T07:40:33;9.60;95.10
298;DHT22;133;49.626;9.680;2022-09-28T07:43:20;9.60;95.80
298;DHT22;133;49.626;9.680;2022-09-28T07:45:47;9.70;95.10
298;DHT22;133;49.626;9.680;2022-09-28T07:48:14;9.70;95.10
298;DHT22;133;49.626;9.680;2022-09-28T07:50:50;9.80;95.20
298;DHT22;133;49.626;9.680;2022-09-28T07:53:20;9.90;94.90
298;DHT22;133;49.626;9.680;2022-09-28T07:55:51;10.00;93.90
298;DHT22;133;49.626;9.680;2022-09-28T07:58:17;10.00;94.70
298;DHT22;133;49.626;9.680;2022-09-28T08:00:44;10.00;93.40
298;DHT22;133;49.626;9.680;2022-09-28T08:03:13;10.10;93.20
298;DHT22;133;49.626;9.680;2022-09-28T08:05:38;10.10;92.50
298;DHT22;133;49.626;9.680;2022-09-28T08:08:05;10.20;92.80
298;DHT22;133;49.626;9.680;2022-09-28T08:10:31;10.20;91.50
298;DHT22;133;49.626;9.680;2022-09-28T08:12:58;10.40;92.10
298;DHT22;133;49.626;9.680;2022-09-28T08:15:27;10.40;90.70
298;DHT22;133;49.626;9.680;2022-09-28T08:17:53;10.40;89.40
298;DHT22;133;49.626;9.680;2022-09-28T08:20:19;10.40;90.60
298;DHT22;133;49.626;9.680;2022-09-28T08:23:08;10.40;89.60
298;DHT22;133;49.626;9.680;2022-09-28T08:25:34;10.40;89.80
298;DHT22;133;49.626;9.680;2022-09-28T08:28:05;10.60;90.10
298;DHT22;133;49.626;9.680;2022-09-28T08:30:31;10.80;90.70
298;DHT22;133;49.626;9.680;2022-09-28T08:32:57;10.90;89.30
298;DHT22;133;49.626;9.680;2022-09-28T08:35:23;10.80;89.00
298;DHT22;133;49.626;9.680;2022-09-28T08:37:50;10.90;88.30
298;DHT22;133;49.626;9.680;2022-09-28T08:40:21;10.80;88.70
298;DHT22;133;49.626;9.680;2022-09-28T08:42:57;10.70;86.60
298;DHT22;133;49.626;9.680;2022-09-28T08:45:28;10.70;87.50
298;DHT22;133;49.626;9.680;2022-09-28T08:48:02;10.60;86.50
298;DHT22;133;49.626;9.680;2022-09-28T08:50:51;10.50;85.30
298;DHT22;133;49.626;9.680;2022-09-28T08:53:54;10.50;86.90
298;DHT22;133;49.626;9.680;2022-09-28T08:56:40;10.60;86.90
298;DHT22;133;49.626;9.680;2022-09-28T08:59:13;10.80;85.70
298;DHT22;133;49.626;9.680;2022-09-28T09:01:47;11.00;86.20
298;DHT22;133;49.626;9.680;2022-09-28T09:04:14;11.10;87.90
298;DHT22;133;49.626;9.680;2022-09-28T09:22:59;12.40;85.20
298;DHT22;133;49.626;9.680;2022-09-28T09:25:27;12.50;83.90
298;DHT22;133;49.626;9.680;2022-09-28T09:30:51;12.50;82.90
298;DHT22;133;49.626;9.680;2022-09-28T09:33:42;12.40;82.30
298;DHT22;133;49.626;9.680;2022-09-28T09:38:55;12.50;82.60
298;DHT22;133;49.626;9.680;2022-09-28T09:42:13;12.30;82.80
298;DHT22;133;49.626;9.680;2022-09-28T09:47:09;12.00;82.60
298;DHT22;133;49.626;9.680;2022-09-28T09:49:42;11.90;83.50
298;DHT22;133;49.626;9.680;2022-09-28T09:54:57;12.00;81.70
298;DHT22;133;49.626;9.680;2022-09-28T09:57:31;12.10;81.40
298;DHT22;133;49.626;9.680;2022-09-28T10:00:01;12.10;79.90
298;DHT22;133;49.626;9.680;2022-09-28T10:02:29;12.10;79.90
298;DHT22;133;49.626;9.680;2022-09-28T10:05:01;12.10;79.90
298;DHT22;133;49.626;9.680;2022-09-28T10:07:44;12.20;78.60
298;DHT22;133;49.626;9.680;2022-09-28T10:10:16;12.30;78.40
298;DHT22;133;49.626;9.680;2022-09-28T10:12:44;12.10;78.40
298;DHT22;133;49.626;9.680;2022-09-28T10:15:15;12.10;79.00
298;DHT22;133;49.626;9.680;2022-09-28T10:17:44;12.20;79.90
298;DHT22;133;49.626;9.680;2022-09-28T10:20:13;12.20;78.50
298;DHT22;133;49.626;9.680;2022-09-28T10:22:40;12.40;78.40
298;DHT22;133;49.626;9.680;2022-09-28T10:25:07;12.60;78.40
298;DHT22;133;49.626;9.680;2022-09-28T10:27:35;12.70;78.10
298;DHT22;133;49.626;9.680;2022-09-28T10:32:44;13.00;76.50
298;DHT22;133;49.626;9.680;2022-09-28T10:35:19;13.30;76.50
298;DHT22;133;49.626;9.680;2022-09-28T10:40:47;13.50;74.10
298;DHT22;133;49.626;9.680;2022-09-28T10:46:19;13.10;74.90
298;DHT22;133;49.626;9.680;2022-09-28T10:49:02;13.20;77.10
298;DHT22;133;49.626;9.680;2022-09-28T10:51:48;13.40;75.60
298;DHT22;133;49.626;9.680;2022-09-28T10:54:28;13.40;73.90
298;DHT22;133;49.626;9.680;2022-09-28T10:56:56;13.50;75.00
298;DHT22;133;49.626;9.680;2022-09-28T11:01:59;13.60;75.10
298;DHT22;133;49.626;9.680;2022-09-28T11:04:27;13.70;74.00
298;DHT22;133;49.626;9.680;2022-09-28T11:06:54;13.70;76.00
298;DHT22;133;49.626;9.680;2022-09-28T11:09:31;13.90;75.10
298;DHT22;133;49.626;9.680;2022-09-28T11:11:58;13.70;72.80
298;DHT22;133;49.626;9.680;2022-09-28T11:14:43;14.20;75.70
298;DHT22;133;49.626;9.680;2022-09-28T11:19:49;15.90;71.30
298;DHT22;133;49.626;9.680;2022-09-28T11:22:37;16.00;67.50
298;DHT22;133;49.626;9.680;2022-09-28T11:28:03;16.20;67.00
298;DHT22;133;49.626;9.680;2022-09-28T11:33:02;16.50;66.50
298;DHT22;133;49.626;9.680;2022-09-28T11:47:16;19.70;61.00
298;DHT22;133;49.626;9.680;2022-09-28T11:58:30;18.90;62.90
298;DHT22;133;49.626;9.680;2022-09-28T12:03:54;18.20;64.20
298;DHT22;133;49.626;9.680;2022-09-28T12:06:26;17.70;65.70
298;DHT22;133;49.626;9.680;2022-09-28T12:09:01;17.20;65.80
298;DHT22;133;49.626;9.680;2022-09-28T12:11:35;16.70;67.00
298;DHT22;133;49.626;9.680;2022-09-28T12:14:04;16.30;69.00
298;DHT22;133;49.626;9.680;2022-09-28T12:17:04;16.00;68.40
298;DHT22;133;49.626;9.680;2022-09-28T12:19:44;15.30;72.10
298;DHT22;133;49.626;9.680;2022-09-28T12:22:35;14.70;77.20
298;DHT22;133;49.626;9.680;2022-09-28T12:25:04;14.30;78.60
298;DHT22;133;49.626;9.680;2022-09-28T12:27:41;14.20;80.90
298;DHT22;133;49.626;9.680;2022-09-28T12:30:19;14.00;80.80
298;DHT22;133;49.626;9.680;2022-09-28T12:33:04;14.10;80.20
298;DHT22;133;49.626;9.680;2022-09-28T12:49:20;13.40;82.00
298;DHT22;133;49.626;9.680;2022-09-28T12:51:49;13.40;81.50
298;DHT22;133;49.626;9.680;2022-09-28T13:02:54;13.30;81.20
298;DHT22;133;49.626;9.680;2022-09-28T13:05:57;13.40;80.90
298;DHT22;133;49.626;9.680;2022-09-28T13:08:36;13.40;80.60
298;DHT22;133;49.626;9.680;2022-09-28T13:11:42;13.60;80.90
298;DHT22;133;49.626;9.680;2022-09-28T13:17:04;14.20;79.20
298;DHT22;133;49.626;9.680;2022-09-28T13:19:46;14.50;74.40
298;DHT22;133;49.626;9.680;2022-09-28T13:22:21;15.00;71.40
298;DHT22;133;49.626;9.680;2022-09-28T13:24:49;14.90;70.10
298;DHT22;133;49.626;9.680;2022-09-28T13:28:05;14.80;70.20
298;DHT22;133;49.626;9.680;2022-09-28T13:30:35;14.60;70.70
298;DHT22;133;49.626;9.680;2022-09-28T13:33:05;15.10;71.50
298;DHT22;133;49.626;9.680;2022-09-28T13:35:31;14.90;68.40
298;DHT22;133;49.626;9.680;2022-09-28T13:49:45;15.90;66.90
298;DHT22;133;49.626;9.680;2022-09-28T13:52:51;16.10;66.30
298;DHT22;133;49.626;9.680;2022-09-28T14:03:52;15.60;67.00
298;DHT22;133;49.626;9.680;2022-09-28T14:06:31;15.70;67.20
298;DHT22;133;49.626;9.680;2022-09-28T14:14:44;15.30;67.20
298;DHT22;133;49.626;9.680;2022-09-28T14:20:11;15.10;67.90
298;DHT22;133;49.626;9.680;2022-09-28T14:23:01;15.50;67.80
298;DHT22;133;49.626;9.680;2022-09-28T14:25:44;15.40;67.40
298;DHT22;133;49.626;9.680;2022-09-28T14:30:54;15.10;68.80
298;DHT22;133;49.626;9.680;2022-09-28T14:33:29;14.80;68.20
298;DHT22;133;49.626;9.680;2022-09-28T14:35:59;14.50;68.50
298;DHT22;133;49.626;9.680;2022-09-28T14:38:47;14.80;68.80
298;DHT22;133;49.626;9.680;2022-09-28T14:41:34;14.90;68.10
298;DHT22;133;49.626;9.680;2022-09-28T14:44:06;15.20;68.80
298;DHT22;133;49.626;9.680;2022-09-28T14:46:43;15.40;68.10
298;DHT22;133;49.626;9.680;2022-09-28T14:54:23;15.80;66.10
298;DHT22;133;49.626;9.680;2022-09-28T14:59:19;15.80;65.40
298;DHT22;133;49.626;9.680;2022-09-28T15:01:56;15.80;66.20
298;DHT22;133;49.626;9.680;2022-09-28T15:04:27;15.90;66.20
298;DHT22;133;49.626;9.680;2022-09-28T15:06:54;16.20;66.90
298;DHT22;133;49.626;9.680;2022-09-28T15:09:36;16.40;66.10
298;DHT22;133;49.626;9.680;2022-09-28T15:17:19;16.10;66.80
298;DHT22;133;49.626;9.680;2022-09-28T15:22:59;15.40;68.70
298;DHT22;133;49.626;9.680;2022-09-28T15:25:28;15.30;69.70
298;DHT22;133;49.626;9.680;2022-09-28T15:27:56;15.30;69.70
298;DHT22;133;49.626;9.680;2022-09-28T15:30:30;15.30;69.70
298;DHT22;133;49.626;9.680;2022-09-28T15:32:58;15.10;69.80
298;DHT22;133;49.626;9.680;2022-09-28T15:36:05;15.00;70.10
298;DHT22;133;49.626;9.680;2022-09-28T15:38:32;14.90;69.30
298;DHT22;133;49.626;9.680;2022-09-28T15:41:02;14.80;69.30
298;DHT22;133;49.626;9.680;2022-09-28T15:43:31;14.60;69.30
298;DHT22;133;49.626;9.680;2022-09-28T15:46:06;14.50;69.60
298;DHT22;133;49.626;9.680;2022-09-28T15:49:05;14.50;69.70
298;DHT22;133;49.626;9.680;2022-09-28T15:51:27;14.50;70.00
298;DHT22;133;49.626;9.680;2022-09-28T15:53:57;14.30;69.60
298;DHT22;133;49.626;9.680;2022-09-28T15:56:24;14.50;69.80
298;DHT22;133;49.626;9.680;2022-09-28T16:01:39;14.40;69.10
298;DHT22;133;49.626;9.680;2022-09-28T16:12:43;14.00;69.80
298;DHT22;133;49.626;9.680;2022-09-28T16:15:24;13.90;70.60
298;DHT22;133;49.626;9.680;2022-09-28T16:17:51;13.90;71.10
298;DHT22;133;49.626;9.680;2022-09-28T16:22:44;13.90;70.90
298;DHT22;133;49.626;9.680;2022-09-28T16:25:18;13.90;71.30
298;DHT22;133;49.626;9.680;2022-09-28T16:27:44;13.90;71.20
298;DHT22;133;49.626;9.680;2022-09-28T16:38:01;13.80;73.90
298;DHT22;133;49.626;9.680;2022-09-28T16:40:28;13.70;73.70
298;DHT22;133;49.626;9.680;2022-09-28T16:42:58;13.70;73.30
298;DHT22;133;49.626;9.680;2022-09-28T16:45:25;13.70;74.50
298;DHT22;133;49.626;9.680;2022-09-28T16:47:55;13.60;74.30
298;DHT22;133;49.626;9.680;2022-09-28T16:50:22;13.60;74.20
298;DHT22;133;49.626;9.680;2022-09-28T16:53:05;13.60;75.30
298;DHT22;133;49.626;9.680;2022-09-28T16:55:53;13.50;77.50
298;DHT22;133;49.626;9.680;2022-09-28T16:58:20;13.50;78.60
298;DHT22;133;49.626;9.680;2022-09-28T17:00:46;13.40;78.30
298;DHT22;133;49.626;9.680;2022-09-28T17:03:14;13.50;77.90
298;DHT22;133;49.626;9.680;2022-09-28T17:05:40;13.50;78.90
298;DHT22;133;49.626;9.680;2022-09-28T17:08:11;13.40;79.90
298;DHT22;133;49.626;9.680;2022-09-28T17:13:21;13.30;80.70
298;DHT22;133;49.626;9.680;2022-09-28T17:16:00;13.20;80.70
298;DHT22;133;49.626;9.680;2022-09-28T17:18:26;13.00;81.30
298;DHT22;133;49.626;9.680;2022-09-28T17:20:54;12.80;81.50
298;DHT22;133;49.626;9.680;2022-09-28T17:23:21;12.60;82.50
298;DHT22;133;49.626;9.680;2022-09-28T17:25:47;12.50;82.80
298;DHT22;133;49.626;9.680;2022-09-28T17:28:22;12.40;83.10
298;DHT22;133;49.626;9.680;2022-09-28T17:30:48;12.30;83.60
298;DHT22;133;49.626;9.680;2022-09-28T17:33:14;12.30;84.00
298;DHT22;133;49.626;9.680;2022-09-28T17:35:41;12.10;84.20
298;DHT22;133;49.626;9.680;2022-09-28T17:38:11;12.00;84.60
298;DHT22;133;49.626;9.680;2022-09-28T17:40:36;12.00;84.80
298;DHT22;133;49.626;9.680;2022-09-28T17:43:02;11.80;85.00
298;DHT22;133;49.626;9.680;2022-09-28T17:45:31;11.80;85.20
298;DHT22;133;49.626;9.680;2022-09-28T17:47:57;11.60;85.60
298;DHT22;133;49.626;9.680;2022-09-28T17:50:29;11.50;86.10
298;DHT22;133;49.626;9.680;2022-09-28T17:52:57;11.40;86.30
298;DHT22;133;49.626;9.680;2022-09-28T17:55:28;11.40;86.50
298;DHT22;133;49.626;9.680;2022-09-28T17:57:55;11.30;86.50
298;DHT22;133;49.626;9.680;2022-09-28T18:00:21;11.20;86.80
298;DHT22;133;49.626;9.680;2022-09-28T18:02:56;11.10;86.90
298;DHT22;133;49.626;9.680;2022-09-28T18:05:22;11.00;86.80
298;DHT22;133;49.626;9.680;2022-09-28T18:07:49;10.90;87.60
298;DHT22;133;49.626;9.680;2022-09-28T18:10:19;10.80;87.90
298;DHT22;133;49.626;9.680;2022-09-28T18:12:46;10.70;87.90
298;DHT22;133;49.626;9.680;2022-09-28T18:15:12;10.60;88.00
298;DHT22;133;49.626;9.680;2022-09-28T18:17:38;10.60;88.20
298;DHT22;133;49.626;9.680;2022-09-28T18:20:09;10.60;88.40
298;DHT22;133;49.626;9.680;2022-09-28T18:22:35;10.50;88.40
298;DHT22;133;49.626;9.680;2022-09-28T18:25:01;10.40;88.90
298;DHT22;133;49.626;9.680;2022-09-28T18:27:28;10.30;89.30
298;DHT22;133;49.626;9.680;2022-09-28T18:29:58;10.20;89.20
298;DHT22;133;49.626;9.680;2022-09-28T18:32:24;10.20;89.50
298;DHT22;133;49.626;9.680;2022-09-28T18:34:50;10.10;89.20
298;DHT22;133;49.626;9.680;2022-09-28T18:37:16;10.10;89.70
298;DHT22;133;49.626;9.680;2022-09-28T18:39:41;10.00;90.00
298;DHT22;133;49.626;9.680;2022-09-28T18:42:07;9.90;89.90
298;DHT22;133;49.626;9.680;2022-09-28T18:44:33;9.90;90.00
298;DHT22;133;49.626;9.680;2022-09-28T18:46:59;9.80;90.20
298;DHT22;133;49.626;9.680;2022-09-28T18:49:28;9.80;90.20
298;DHT22;133;49.626;9.680;2022-09-28T18:51:54;9.70;90.70
298;DHT22;133;49.626;9.680;2022-09-28T18:54:20;9.60;90.80
298;DHT22;133;49.626;9.680;2022-09-28T18:56:45;9.60;90.90
298;DHT22;133;49.626;9.680;2022-09-28T18:59:11;9.60;90.90
298;DHT22;133;49.626;9.680;2022-09-28T19:01:37;9.50;91.00
298;DHT22;133;49.626;9.680;2022-09-28T19:04:05;9.40;91.60
298;DHT22;133;49.626;9.680;2022-09-28T19:06:33;9.50;91.70
298;DHT22;133;49.626;9.680;2022-09-28T19:08:59;9.50;91.20
298;DHT22;133;49.626;9.680;2022-09-28T19:11:26;9.40;91.10
298;DHT22;133;49.626;9.680;2022-09-28T19:13:53;9.30;91.90
298;DHT22;133;49.626;9.680;2022-09-28T19:16:20;9.30;92.00
298;DHT22;133;49.626;9.680;2022-09-28T19:18:47;9.30;92.00
298;DHT22;133;49.626;9.680;2022-09-28T19:21:14;9.30;92.40
298;DHT22;133;49.626;9.680;2022-09-28T19:23:41;9.30;92.40
298;DHT22;133;49.626;9.680;2022-09-28T19:26:10;9.30;92.50
298;DHT22;133;49.626;9.680;2022-09-28T19:28:37;9.40;92.20
298;DHT22;133;49.626;9.680;2022-09-28T19:31:04;9.30;92.20
298;DHT22;133;49.626;9.680;2022-09-28T19:33:30;9.30;92.80
298;DHT22;133;49.626;9.680;2022-09-28T19:36:10;9.30;92.60
298;DHT22;133;49.626;9.680;2022-09-28T19:38:37;9.40;92.70
298;DHT22;133;49.626;9.680;2022-09-28T19:41:17;9.50;92.70
298;DHT22;133;49.626;9.680;2022-09-28T19:44:03;9.50;92.60
298;DHT22;133;49.626;9.680;2022-09-28T19:46:30;9.40;91.10
298;DHT22;133;49.626;9.680;2022-09-28T19:49:01;9.30;91.10
298;DHT22;133;49.626;9.680;2022-09-28T19:51:27;9.30;91.40
298;DHT22;133;49.626;9.680;2022-09-28T19:53:53;9.20;91.60
298;DHT22;133;49.626;9.680;2022-09-28T19:56:18;9.10;91.40
298;DHT22;133;49.626;9.680;2022-09-28T19:58:45;9.00;91.60
298;DHT22;133;49.626;9.680;2022-09-28T20:01:11;9.00;92.00
298;DHT22;133;49.626;9.680;2022-09-28T20:03:37;8.90;92.30
298;DHT22;133;49.626;9.680;2022-09-28T20:06:03;8.90;92.90
298;DHT22;133;49.626;9.680;2022-09-28T20:08:29;8.80;92.80
298;DHT22;133;49.626;9.680;2022-09-28T20:10:57;8.90;93.00
298;DHT22;133;49.626;9.680;2022-09-28T20:13:29;8.90;92.80
298;DHT22;133;49.626;9.680;2022-09-28T20:15:55;8.90;93.40
298;DHT22;133;49.626;9.680;2022-09-28T20:18:21;9.00;93.60
298;DHT22;133;49.626;9.680;2022-09-28T20:20:47;9.10;93.60
298;DHT22;133;49.626;9.680;2022-09-28T20:23:12;9.10;93.70
298;DHT22;133;49.626;9.680;2022-09-28T20:25:38;9.20;93.80
298;DHT22;133;49.626;9.680;2022-09-28T20:28:04;9.30;93.60